sensor_id;sensor_type;location;lat;lon;timestamp;P1;durP1;ratioP1;P2;durP2;ratioP2
46607;SDS011;32330;51.936;7.184;2022-12-04T03:17:15;49.03;;;29.20;;
46607;SDS011;32330;51.936;7.184;2022-12-04T03:19:47;47.55;;;28.10;;
46607;SDS011;32330;51.936;7.184;2022-12-04T03:22:18;49.08;;;29.05;;
46607;SDS011;32330;51.936;7.184;2022-12-04T03:24:50;44.47;;;27.50;;
46607;SDS011;32330;51.936;7.184;2022-12-04T03:27:20;49.50;;;29.50;;
46607;SDS011;32330;51.936;7.184;2022-12-04T03:29:53;47.20;;;29.80;;
46607;SDS011;32330;51.936;7.184;2022-12-04T03:32:29;49.63;;;28.73;;
46607;SDS011;32330;51.936;7.184;2022-12-04T03:35:00;47.53;;;28.70;;
46607;SDS011;32330;51.936;7.184;2022-12-04T03:37:31;46.08;;;28.63;;
46607;SDS011;32330;51.936;7.184;2022-12-04T03:40:04;45.92;;;27.95;;
46607;SDS011;32330;51.936;7.184;2022-12-04T03:42:39;43.75;;;26.25;;
46607;SDS011;32330;51.936;7.184;2022-12-04T03:45:13;40.55;;;25.20;;
46607;SDS011;32330;51.936;7.184;2022-12-04T03:47:48;44.42;;;27.75;;
46607;SDS011;32330;51.936;7.184;2022-12-04T03:50:21;47.03;;;27.70;;
46607;SDS011;32330;51.936;7.184;2022-12-04T03:52:57;48.40;;;27.20;;
46607;SDS011;32330;51.936;7.184;2022-12-04T03:55:28;47.15;;;27.88;;
46607;SDS011;32330;51.936;7.184;2022-12-04T03:57:58;47.30;;;27.15;;
46607;SDS011;32330;51.936;7.184;2022-12-04T04:00:29;38.83;;;25.00;;
46607;SDS011;32330;51.936;7.184;2022-12-04T04:03:05;44.53;;;26.60;;
46607;SDS011;32330;51.936;7.184;2022-12-04T04:05:35;44.10;;;25.13;;
46607;SDS011;32330;51.936;7.184;2022-12-04T04:08:07;42.83;;;27.80;;
46607;SDS011;32330;51.936;7.184;2022-12-04T04:10:51;42.42;;;25.02;;
46607;SDS011;32330;51.936;7.184;2022-12-04T04:13:21;42.83;;;25.88;;
46607;SDS011;32330;51.936;7.184;2022-12-04T04:16:16;37.58;;;23.92;;
46607;SDS011;32330;51.936;7.184;2022-12-04T04:19:05;46.15;;;27.38;;
46607;SDS011;32330;51.936;7.184;2022-12-04T04:21:51;39.15;;;22.80;;
46607;SDS011;32330;51.936;7.184;2022-12-04T04:24:40;38.85;;;23.33;;
46607;SDS011;32330;51.936;7.184;2022-12-04T04:27:09;39.40;;;23.92;;
46607;SDS011;32330;51.936;7.184;2022-12-04T04:29:37;41.83;;;24.05;;
46607;SDS011;32330;51.936;7.184;2022-12-04T04:32:06;40.85;;;23.35;;
46607;SDS011;32330;51.936;7.184;2022-12-04T04:34:42;38.38;;;23.35;;
46607;SDS011;32330;51.936;7.184;2022-12-04T04:37:17;36.17;;;22.85;;
46607;SDS011;32330;51.936;7.184;2022-12-04T04:39:53;39.88;;;22.92;;
46607;SDS011;32330;51.936;7.184;2022-12-04T04:42:26;37.53;;;22.48;;
46607;SDS011;32330;51.936;7.184;2022-12-04T04:44:57;38.38;;;22.30;;
46607;SDS011;32330;51.936;7.184;2022-12-04T04:47:31;38.90;;;22.73;;
46607;SDS011;32330;51.936;7.184;2022-12-04T04:50:04;35.72;;;22.05;;
46607;SDS011;32330;51.936;7.184;2022-12-04T04:52:34;37.15;;;22.25;;
46607;SDS011;32330;51.936;7.184;2022-12-04T04:55:03;37.67;;;22.70;;
46607;SDS011;32330;51.936;7.184;2022-12-04T04:57:32;34.83;;;22.02;;
46607;SDS011;32330;51.936;7.184;2022-12-04T05:00:00;38.28;;;23.10;;
46607;SDS011;32330;51.936;7.184;2022-12-04T05:02:30;36.95;;;22.25;;
46607;SDS011;32330;51.936;7.184;2022-12-04T05:04:57;38.42;;;22.23;;
46607;SDS011;32330;51.936;7.184;2022-12-04T05:07:26;39.05;;;22.35;;
46607;SDS011;32330;51.936;7.184;2022-12-04T05:09:53;38.30;;;23.42;;
46607;SDS011;32330;51.936;7.184;2022-12-04T05:12:19;38.75;;;24.17;;
46607;SDS011;32330;51.936;7.184;2022-12-04T05:14:47;37.45;;;21.27;;
46607;SDS011;32330;51.936;7.184;2022-12-04T05:17:14;36.08;;;21.60;;
46607;SDS011;32330;51.936;7.184;2022-12-04T05:19:41;37.53;;;22.65;;
46607;SDS011;32330;51.936;7.184;2022-12-04T05:22:21;39.72;;;24.35;;
46607;SDS011;32330;51.936;7.184;2022-12-04T05:24:51;41.38;;;22.98;;
46607;SDS011;32330;51.936;7.184;2022-12-04T05:27:19;37.80;;;22.50;;
46607;SDS011;32330;51.936;7.184;2022-12-04T05:29:46;41.17;;;23.83;;
46607;SDS011;32330;51.936;7.184;2022-12-04T05:32:14;39.78;;;23.88;;
46607;SDS011;32330;51.936;7.184;2022-12-04T05:34:41;40.55;;;24.35;;
46607;SDS011;32330;51.936;7.184;2022-12-04T05:37:08;40.78;;;23.85;;
46607;SDS011;32330;51.936;7.184;2022-12-04T05:39:35;40.95;;;23.90;;
46607;SDS011;32330;51.936;7.184;2022-12-04T05:42:03;40.13;;;23.02;;
46607;SDS011;32330;51.936;7.184;2022-12-04T05:44:30;42.55;;;24.42;;
46607;SDS011;32330;51.936;7.184;2022-12-04T05:46:57;38.80;;;23.17;;
46607;SDS011;32330;51.936;7.184;2022-12-04T05:49:24;41.47;;;23.38;;
46607;SDS011;32330;51.936;7.184;2022-12-04T05:51:54;41.08;;;24.55;;
46607;SDS011;32330;51.936;7.184;2022-12-04T05:54:21;45.13;;;22.85;;
46607;SDS011;32330;51.936;7.184;2022-12-04T05:56:49;40.85;;;24.83;;
46607;SDS011;32330;51.936;7.184;2022-12-04T05:59:17;39.40;;;24.10;;
46607;SDS011;32330;51.936;7.184;2022-12-04T06:01:44;40.70;;;24.33;;
46607;SDS011;32330;51.936;7.184;2022-12-04T06:04:11;43.05;;;25.15;;
46607;SDS011;32330;51.936;7.184;2022-12-04T06:06:38;41.35;;;24.85;;
46607;SDS011;32330;51.936;7.184;2022-12-04T06:09:06;41.72;;;24.48;;
46607;SDS011;32330;51.936;7.184;2022-12-04T06:11:34;42.55;;;22.45;;
46607;SDS011;32330;51.936;7.184;2022-12-04T06:14:04;45.85;;;23.98;;
46607;SDS011;32330;51.936;7.184;2022-12-04T06:16:35;38.13;;;22.50;;
46607;SDS011;32330;51.936;7.184;2022-12-04T06:19:03;37.58;;;22.83;;
46607;SDS011;32330;51.936;7.184;2022-12-04T06:21:33;41.13;;;23.83;;
46607;SDS011;32330;51.936;7.184;2022-12-04T06:24:02;43.15;;;23.30;;
46607;SDS011;32330;51.936;7.184;2022-12-04T06:26:29;42.72;;;23.30;;
46607;SDS011;32330;51.936;7.184;2022-12-04T06:28:57;36.83;;;22.20;;
46607;SDS011;32330;51.936;7.184;2022-12-04T06:31:26;39.33;;;21.52;;
46607;SDS011;32330;51.936;7.184;2022-12-04T06:33:56;36.58;;;21.10;;
46607;SDS011;32330;51.936;7.184;2022-12-04T06:36:23;37.30;;;20.67;;
46607;SDS011;32330;51.936;7.184;2022-12-04T06:38:51;38.75;;;21.90;;
46607;SDS011;32330;51.936;7.184;2022-12-04T06:41:21;37.50;;;21.25;;
46607;SDS011;32330;51.936;7.184;2022-12-04T06:43:49;35.90;;;19.75;;
46607;SDS011;32330;51.936;7.184;2022-12-04T06:46:17;36.03;;;20.33;;
46607;SDS011;32330;51.936;7.184;2022-12-04T06:48:45;39.35;;;22.33;;
46607;SDS011;32330;51.936;7.184;2022-12-04T06:51:14;38.88;;;21.83;;
46607;SDS011;32330;51.936;7.184;2022-12-04T06:53:43;39.15;;;22.05;;
46607;SDS011;32330;51.936;7.184;2022-12-04T06:56:12;42.15;;;23.90;;
46607;SDS011;32330;51.936;7.184;2022-12-04T06:58:42;37.03;;;21.05;;
46607;SDS011;32330;51.936;7.184;2022-12-04T07:01:10;37.75;;;22.00;;
46607;SDS011;32330;51.936;7.184;2022-12-04T07:03:38;31.83;;;18.90;;
46607;SDS011;32330;51.936;7.184;2022-12-04T07:06:09;35.53;;;22.10;;
46607;SDS011;32330;51.936;7.184;2022-12-04T07:08:39;33.25;;;19.27;;
46607;SDS011;32330;51.936;7.184;2022-12-04T07:11:06;36.58;;;21.27;;
46607;SDS011;32330;51.936;7.184;2022-12-04T07:13:33;31.90;;;19.58;;
46607;SDS011;32330;51.936;7.184;2022-12-04T07:16:00;32.88;;;18.45;;
46607;SDS011;32330;51.936;7.184;2022-12-04T07:18:27;27.25;;;17.67;;
46607;SDS011;32330;51.936;7.184;2022-12-04T07:20:55;31.10;;;18.17;;
46607;SDS011;32330;51.936;7.184;2022-12-04T07:23:22;28.92;;;17.55;;
46607;SDS011;32330;51.936;7.184;2022-12-04T07:25:50;28.77;;;17.38;;
46607;SDS011;32330;51.936;7.184;2022-12-04T07:28:17;29.65;;;17.13;;
46607;SDS011;32330;51.936;7.184;2022-12-04T07:30:44;30.92;;;17.90;;
46607;SDS011;32330;51.936;7.184;2022-12-04T07:33:11;28.83;;;16.38;;
46607;SDS011;32330;51.936;7.184;2022-12-04T07:35:38;33.08;;;18.38;;
46607;SDS011;32330;51.936;7.184;2022-12-04T07:38:05;28.48;;;17.25;;
46607;SDS011;32330;51.936;7.184;2022-12-04T07:40:32;31.23;;;18.70;;
46607;SDS011;32330;51.936;7.184;2022-12-04T07:43:00;28.27;;;18.30;;
46607;SDS011;32330;51.936;7.184;2022-12-04T07:45:27;28.85;;;16.90;;
46607;SDS011;32330;51.936;7.184;2022-12-04T07:47:54;28.58;;;16.35;;
46607;SDS011;32330;51.936;7.184;2022-12-04T07:50:21;26.60;;;15.88;;
46607;SDS011;32330;51.936;7.184;2022-12-04T07:52:48;28.67;;;16.80;;
46607;SDS011;32330;51.936;7.184;2022-12-04T07:55:15;27.52;;;17.02;;
46607;SDS011;32330;51.936;7.184;2022-12-04T07:57:42;25.38;;;15.73;;
46607;SDS011;32330;51.936;7.184;2022-12-04T08:00:11;24.80;;;14.15;;
46607;SDS011;32330;51.936;7.184;2022-12-04T08:02:40;23.55;;;14.48;;
46607;SDS011;32330;51.936;7.184;2022-12-04T08:05:07;27.80;;;15.85;;
46607;SDS011;32330;51.936;7.184;2022-12-04T08:07:34;25.25;;;15.98;;
46607;SDS011;32330;51.936;7.184;2022-12-04T08:10:03;23.92;;;14.23;;
46607;SDS011;32330;51.936;7.184;2022-12-04T08:12:42;23.48;;;15.48;;
46607;SDS011;32330;51.936;7.184;2022-12-04T08:15:11;22.13;;;14.77;;
46607;SDS011;32330;51.936;7.184;2022-12-04T08:17:38;24.08;;;14.88;;
46607;SDS011;32330;51.936;7.184;2022-12-04T08:20:05;24.77;;;14.85;;
46607;SDS011;32330;51.936;7.184;2022-12-04T08:22:33;28.98;;;15.75;;
46607;SDS011;32330;51.936;7.184;2022-12-04T08:25:00;25.15;;;15.48;;
46607;SDS011;32330;51.936;7.184;2022-12-04T08:27:26;24.98;;;14.65;;
46607;SDS011;32330;51.936;7.184;2022-12-04T08:29:53;20.92;;;13.38;;
46607;SDS011;32330;51.936;7.184;2022-12-04T08:32:22;21.30;;;13.77;;
46607;SDS011;32330;51.936;7.184;2022-12-04T08:34:49;21.58;;;13.63;;
46607;SDS011;32330;51.936;7.184;2022-12-04T08:37:16;20.92;;;13.75;;
46607;SDS011;32330;51.936;7.184;2022-12-04T08:39:43;25.50;;;15.40;;
46607;SDS011;32330;51.936;7.184;2022-12-04T08:42:10;24.38;;;14.55;;
46607;SDS011;32330;51.936;7.184;2022-12-04T08:44:37;21.50;;;12.88;;
46607;SDS011;32330;51.936;7.184;2022-12-04T08:47:03;26.90;;;15.98;;
46607;SDS011;32330;51.936;7.184;2022-12-04T08:49:32;20.88;;;15.20;;
46607;SDS011;32330;51.936;7.184;2022-12-04T08:51:59;22.92;;;15.00;;
46607;SDS011;32330;51.936;7.184;2022-12-04T08:54:26;25.02;;;15.82;;
46607;SDS011;32330;51.936;7.184;2022-12-04T08:56:53;23.10;;;14.52;;
46607;SDS011;32330;51.936;7.184;2022-12-04T08:59:20;24.95;;;15.40;;
46607;SDS011;32330;51.936;7.184;2022-12-04T09:01:48;22.75;;;13.27;;
46607;SDS011;32330;51.936;7.184;2022-12-04T09:04:16;21.00;;;13.48;;
46607;SDS011;32330;51.936;7.184;2022-12-04T09:06:50;18.00;;;12.93;;
46607;SDS011;32330;51.936;7.184;2022-12-04T09:09:17;20.83;;;11.93;;
46607;SDS011;32330;51.936;7.184;2022-12-04T09:11:44;24.42;;;14.32;;
46607;SDS011;32330;51.936;7.184;2022-12-04T09:14:11;18.88;;;12.80;;
46607;SDS011;32330;51.936;7.184;2022-12-04T09:16:38;21.17;;;13.15;;
46607;SDS011;32330;51.936;7.184;2022-12-04T09:19:05;21.00;;;12.93;;
46607;SDS011;32330;51.936;7.184;2022-12-04T09:21:32;21.05;;;14.60;;
46607;SDS011;32330;51.936;7.184;2022-12-04T09:24:00;20.35;;;13.63;;
46607;SDS011;32330;51.936;7.184;2022-12-04T09:26:28;17.85;;;13.02;;
46607;SDS011;32330;51.936;7.184;2022-12-04T09:28:57;19.05;;;13.05;;
46607;SDS011;32330;51.936;7.184;2022-12-04T09:31:24;21.67;;;13.82;;
46607;SDS011;32330;51.936;7.184;2022-12-04T09:33:52;20.15;;;13.20;;
46607;SDS011;32330;51.936;7.184;2022-12-04T09:36:21;20.40;;;13.20;;
46607;SDS011;32330;51.936;7.184;2022-12-04T09:38:54;22.08;;;13.88;;
46607;SDS011;32330;51.936;7.184;2022-12-04T09:41:26;18.30;;;12.80;;
46607;SDS011;32330;51.936;7.184;2022-12-04T09:44:00;21.52;;;13.40;;
46607;SDS011;32330;51.936;7.184;2022-12-04T09:46:30;18.20;;;12.20;;
46607;SDS011;32330;51.936;7.184;2022-12-04T09:49:02;19.52;;;14.38;;
46607;SDS011;32330;51.936;7.184;2022-12-04T09:51:35;21.33;;;12.68;;
46607;SDS011;32330;51.936;7.184;2022-12-04T09:54:06;19.80;;;12.60;;
46607;SDS011;32330;51.936;7.184;2022-12-04T09:56:39;21.13;;;12.93;;
46607;SDS011;32330;51.936;7.184;2022-12-04T09:59:10;22.52;;;12.70;;
46607;SDS011;32330;51.936;7.184;2022-12-04T10:01:41;17.98;;;12.80;;
46607;SDS011;32330;51.936;7.184;2022-12-04T10:04:11;21.95;;;13.60;;
46607;SDS011;32330;51.936;7.184;2022-12-04T10:06:43;22.10;;;13.13;;
46607;SDS011;32330;51.936;7.184;2022-12-04T10:09:19;21.20;;;13.13;;
46607;SDS011;32330;51.936;7.184;2022-12-04T10:11:54;21.02;;;13.07;;
46607;SDS011;32330;51.936;7.184;2022-12-04T10:14:35;21.38;;;12.75;;
46607;SDS011;32330;51.936;7.184;2022-12-04T10:17:31;20.60;;;13.70;;
46607;SDS011;32330;51.936;7.184;2022-12-04T10:20:12;19.65;;;13.23;;
46607;SDS011;32330;51.936;7.184;2022-12-04T10:22:57;22.42;;;12.77;;
46607;SDS011;32330;51.936;7.184;2022-12-04T10:25:32;20.60;;;13.45;;
46607;SDS011;32330;51.936;7.184;2022-12-04T10:28:07;21.02;;;13.27;;
46607;SDS011;32330;51.936;7.184;2022-12-04T10:30:50;19.98;;;12.20;;
46607;SDS011;32330;51.936;7.184;2022-12-04T10:33:20;21.70;;;13.68;;
46607;SDS011;32330;51.936;7.184;2022-12-04T10:35:55;19.85;;;13.45;;
46607;SDS011;32330;51.936;7.184;2022-12-04T10:38:25;21.15;;;13.35;;
46607;SDS011;32330;51.936;7.184;2022-12-04T10:40:58;22.83;;;13.68;;
46607;SDS011;32330;51.936;7.184;2022-12-04T10:43:32;19.08;;;11.93;;
46607;SDS011;32330;51.936;7.184;2022-12-04T10:46:03;21.75;;;14.95;;
46607;SDS011;32330;51.936;7.184;2022-12-04T10:48:31;20.10;;;13.52;;
46607;SDS011;32330;51.936;7.184;2022-12-04T10:51:00;19.58;;;14.20;;
46607;SDS011;32330;51.936;7.184;2022-12-04T10:53:28;20.92;;;13.20;;
46607;SDS011;32330;51.936;7.184;2022-12-04T10:56:06;19.50;;;12.45;;
46607;SDS011;32330;51.936;7.184;2022-12-04T10:58:35;20.58;;;12.35;;
46607;SDS011;32330;51.936;7.184;2022-12-04T11:01:03;18.30;;;12.35;;
46607;SDS011;32330;51.936;7.184;2022-12-04T11:03:32;19.65;;;12.90;;
46607;SDS011;32330;51.936;7.184;2022-12-04T11:06:00;19.67;;;13.13;;
46607;SDS011;32330;51.936;7.184;2022-12-04T11:08:30;20.10;;;12.50;;
46607;SDS011;32330;51.936;7.184;2022-12-04T11:11:02;18.27;;;12.38;;
46607;SDS011;32330;51.936;7.184;2022-12-04T11:13:31;19.20;;;13.15;;
46607;SDS011;32330;51.936;7.184;2022-12-04T11:16:00;18.75;;;13.15;;
46607;SDS011;32330;51.936;7.184;2022-12-04T11:18:28;20.02;;;13.30;;
46607;SDS011;32330;51.936;7.184;2022-12-04T11:20:56;21.33;;;13.93;;
46607;SDS011;32330;51.936;7.184;2022-12-04T11:23:25;17.33;;;11.65;;
46607;SDS011;32330;51.936;7.184;2022-12-04T11:28:26;17.27;;;11.93;;
46607;SDS011;32330;51.936;7.184;2022-12-04T11:30:56;19.20;;;13.07;;
46607;SDS011;32330;51.936;7.184;2022-12-04T11:33:27;19.85;;;12.43;;
46607;SDS011;32330;51.936;7.184;2022-12-04T11:36:04;20.15;;;13.15;;
46607;SDS011;32330;51.936;7.184;2022-12-04T11:38:43;16.30;;;12.20;;
46607;SDS011;32330;51.936;7.184;2022-12-04T11:41:20;17.52;;;11.90;;
46607;SDS011;32330;51.936;7.184;2022-12-04T11:43:49;19.80;;;13.30;;
46607;SDS011;32330;51.936;7.184;2022-12-04T11:46:19;20.88;;;13.25;;
46607;SDS011;32330;51.936;7.184;2022-12-04T11:48:49;19.50;;;13.52;;
46607;SDS011;32330;51.936;7.184;2022-12-04T11:51:18;19.83;;;13.82;;
46607;SDS011;32330;51.936;7.184;2022-12-04T11:53:56;22.05;;;13.60;;
46607;SDS011;32330;51.936;7.184;2022-12-04T11:56:30;22.13;;;14.18;;
46607;SDS011;32330;51.936;7.184;2022-12-04T12:01:56;20.60;;;13.82;;
46607;SDS011;32330;51.936;7.184;2022-12-04T12:04:40;20.33;;;12.98;;
46607;SDS011;32330;51.936;7.184;2022-12-04T12:07:21;23.05;;;15.07;;
46607;SDS011;32330;51.936;7.184;2022-12-04T12:09:59;22.33;;;15.10;;
46607;SDS011;32330;51.936;7.184;2022-12-04T12:12:34;20.08;;;13.32;;
46607;SDS011;32330;51.936;7.184;2022-12-04T12:15:14;23.50;;;14.85;;
46607;SDS011;32330;51.936;7.184;2022-12-04T12:17:49;22.08;;;14.18;;
46607;SDS011;32330;51.936;7.184;2022-12-04T12:20:27;22.05;;;15.02;;
46607;SDS011;32330;51.936;7.184;2022-12-04T12:23:05;23.42;;;15.98;;
46607;SDS011;32330;51.936;7.184;2022-12-04T12:25:49;25.13;;;16.10;;
46607;SDS011;32330;51.936;7.184;2022-12-04T12:28:37;24.65;;;15.02;;
46607;SDS011;32330;51.936;7.184;2022-12-04T12:31:16;26.70;;;17.25;;
46607;SDS011;32330;51.936;7.184;2022-12-04T12:33:59;25.08;;;16.73;;
46607;SDS011;32330;51.936;7.184;2022-12-04T12:36:32;29.48;;;17.92;;
46607;SDS011;32330;51.936;7.184;2022-12-04T12:39:03;25.77;;;17.58;;
46607;SDS011;32330;51.936;7.184;2022-12-04T12:41:37;26.63;;;17.40;;
46607;SDS011;32330;51.936;7.184;2022-12-04T12:44:09;30.63;;;18.92;;
46607;SDS011;32330;51.936;7.184;2022-12-04T12:46:43;26.70;;;16.92;;
46607;SDS011;32330;51.936;7.184;2022-12-04T12:49:16;26.75;;;17.17;;
46607;SDS011;32330;51.936;7.184;2022-12-04T12:51:48;28.92;;;18.15;;
46607;SDS011;32330;51.936;7.184;2022-12-04T12:56:52;29.90;;;19.30;;
46607;SDS011;32330;51.936;7.184;2022-12-04T12:59:27;27.17;;;17.95;;
46607;SDS011;32330;51.936;7.184;2022-12-04T13:01:57;29.85;;;18.23;;
46607;SDS011;32330;51.936;7.184;2022-12-04T13:04:32;30.33;;;18.73;;
46607;SDS011;32330;51.936;7.184;2022-12-04T13:07:07;32.80;;;20.02;;
46607;SDS011;32330;51.936;7.184;2022-12-04T13:09:47;29.45;;;19.25;;
46607;SDS011;32330;51.936;7.184;2022-12-04T13:12:18;34.17;;;20.30;;
46607;SDS011;32330;51.936;7.184;2022-12-04T13:14:47;28.20;;;19.25;;
46607;SDS011;32330;51.936;7.184;2022-12-04T13:17:15;27.13;;;17.05;;
46607;SDS011;32330;51.936;7.184;2022-12-04T13:19:46;29.23;;;17.67;;
46607;SDS011;32330;51.936;7.184;2022-12-04T13:22:21;28.65;;;17.70;;
46607;SDS011;32330;51.936;7.184;2022-12-04T13:25:02;27.17;;;16.98;;
46607;SDS011;32330;51.936;7.184;2022-12-04T13:27:41;24.08;;;16.58;;
46607;SDS011;32330;51.936;7.184;2022-12-04T13:30:17;31.75;;;18.60;;
46607;SDS011;32330;51.936;7.184;2022-12-04T13:35:54;28.30;;;17.80;;
46607;SDS011;32330;51.936;7.184;2022-12-04T13:38:34;29.13;;;17.23;;
46607;SDS011;32330;51.936;7.184;2022-12-04T13:41:14;27.38;;;16.63;;
46607;SDS011;32330;51.936;7.184;2022-12-04T13:43:45;30.55;;;17.98;;
46607;SDS011;32330;51.936;7.184;2022-12-04T13:49:07;29.90;;;19.15;;
46607;SDS011;32330;51.936;7.184;2022-12-04T13:51:37;31.23;;;19.92;;
46607;SDS011;32330;51.936;7.184;2022-12-04T14:00:00;30.15;;;19.13;;
46607;SDS011;32330;51.936;7.184;2022-12-04T14:02:37;34.83;;;21.83;;
46607;SDS011;32330;51.936;7.184;2022-12-04T14:05:13;34.42;;;21.95;;
46607;SDS011;32330;51.936;7.184;2022-12-04T14:07:40;35.25;;;22.35;;
46607;SDS011;32330;51.936;7.184;2022-12-04T14:10:27;35.08;;;21.10;;
46607;SDS011;32330;51.936;7.184;2022-12-04T14:12:58;37.35;;;20.77;;
46607;SDS011;32330;51.936;7.184;2022-12-04T14:15:28;33.65;;;20.45;;
46607;SDS011;32330;51.936;7.184;2022-12-04T14:17:58;35.90;;;21.48;;
46607;SDS011;32330;51.936;7.184;2022-12-04T14:20:27;35.17;;;22.45;;
46607;SDS011;32330;51.936;7.184;2022-12-04T14:23:05;34.08;;;20.95;;
46607;SDS011;32330;51.936;7.184;2022-12-04T14:25:35;31.83;;;22.10;;
46607;SDS011;32330;51.936;7.184;2022-12-04T14:28:13;34.90;;;20.25;;
46607;SDS011;32330;51.936;7.184;2022-12-04T14:31:00;34.88;;;20.08;;
46607;SDS011;32330;51.936;7.184;2022-12-04T14:33:35;34.35;;;19.85;;
46607;SDS011;32330;51.936;7.184;2022-12-04T14:36:08;36.33;;;22.05;;
46607;SDS011;32330;51.936;7.184;2022-12-04T14:38:43;33.38;;;21.70;;
46607;SDS011;32330;51.936;7.184;2022-12-04T14:41:12;31.00;;;19.80;;
46607;SDS011;32330;51.936;7.184;2022-12-04T14:43:48;37.15;;;21.88;;
46607;SDS011;32330;51.936;7.184;2022-12-04T14:46:17;33.13;;;21.55;;
46607;SDS011;32330;51.936;7.184;2022-12-04T14:48:51;40.40;;;23.13;;
46607;SDS011;32330;51.936;7.184;2022-12-04T14:51:29;32.80;;;21.40;;
46607;SDS011;32330;51.936;7.184;2022-12-04T14:54:00;34.25;;;21.35;;
46607;SDS011;32330;51.936;7.184;2022-12-04T14:56:39;36.22;;;21.83;;
46607;SDS011;32330;51.936;7.184;2022-12-04T14:59:17;37.70;;;21.48;;
46607;SDS011;32330;51.936;7.184;2022-12-04T15:01:47;37.22;;;23.50;;
46607;SDS011;32330;51.936;7.184;2022-12-04T15:04:18;43.13;;;22.88;;
46607;SDS011;32330;51.936;7.184;2022-12-04T15:06:48;37.88;;;22.67;;
46607;SDS011;32330;51.936;7.184;2022-12-04T15:09:18;35.05;;;21.85;;
46607;SDS011;32330;51.936;7.184;2022-12-04T15:12:13;37.00;;;22.25;;
46607;SDS011;32330;51.936;7.184;2022-12-04T15:14:59;36.90;;;21.95;;
46607;SDS011;32330;51.936;7.184;2022-12-04T15:17:33;34.88;;;20.23;;
46607;SDS011;32330;51.936;7.184;2022-12-04T15:20:08;38.33;;;21.95;;
46607;SDS011;32330;51.936;7.184;2022-12-04T15:22:40;37.03;;;20.98;;
46607;SDS011;32330;51.936;7.184;2022-12-04T15:25:12;39.05;;;22.58;;
46607;SDS011;32330;51.936;7.184;2022-12-04T15:27:44;37.42;;;21.42;;
46607;SDS011;32330;51.936;7.184;2022-12-04T15:30:14;32.50;;;20.17;;
46607;SDS011;32330;51.936;7.184;2022-12-04T15:32:42;35.25;;;19.70;;
46607;SDS011;32330;51.936;7.184;2022-12-04T15:35:11;34.45;;;20.92;;
46607;SDS011;32330;51.936;7.184;2022-12-04T15:37:44;33.63;;;21.17;;
46607;SDS011;32330;51.936;7.184;2022-12-04T15:40:13;34.13;;;19.98;;
46607;SDS011;32330;51.936;7.184;2022-12-04T15:42:47;34.30;;;20.98;;
46607;SDS011;32330;51.936;7.184;2022-12-04T15:45:22;31.77;;;20.08;;
46607;SDS011;32330;51.936;7.184;2022-12-04T15:47:53;32.70;;;20.35;;
46607;SDS011;32330;51.936;7.184;2022-12-04T15:50:23;37.33;;;21.08;;
46607;SDS011;32330;51.936;7.184;2022-12-04T15:52:54;37.47;;;21.80;;
46607;SDS011;32330;51.936;7.184;2022-12-04T15:55:24;36.90;;;21.98;;
46607;SDS011;32330;51.936;7.184;2022-12-04T15:57:55;36.88;;;21.85;;
46607;SDS011;32330;51.936;7.184;2022-12-04T16:00:25;40.25;;;22.75;;
46607;SDS011;32330;51.936;7.184;2022-12-04T16:02:54;35.97;;;21.67;;
46607;SDS011;32330;51.936;7.184;2022-12-04T16:05:25;34.63;;;21.52;;
46607;SDS011;32330;51.936;7.184;2022-12-04T16:07:57;35.78;;;21.48;;
46607;SDS011;32330;51.936;7.184;2022-12-04T16:10:26;40.97;;;24.60;;
46607;SDS011;32330;51.936;7.184;2022-12-04T16:12:56;42.45;;;25.10;;
46607;SDS011;32330;51.936;7.184;2022-12-04T16:15:26;37.17;;;23.40;;
46607;SDS011;32330;51.936;7.184;2022-12-04T16:18:01;40.35;;;24.58;;
46607;SDS011;32330;51.936;7.184;2022-12-04T16:20:30;42.92;;;24.40;;
46607;SDS011;32330;51.936;7.184;2022-12-04T16:22:57;46.35;;;24.83;;
46607;SDS011;32330;51.936;7.184;2022-12-04T16:25:24;43.28;;;26.25;;
46607;SDS011;32330;51.936;7.184;2022-12-04T16:27:53;41.80;;;24.92;;
46607;SDS011;32330;51.936;7.184;2022-12-04T16:30:21;42.55;;;26.08;;
46607;SDS011;32330;51.936;7.184;2022-12-04T16:32:48;45.67;;;24.63;;
46607;SDS011;32330;51.936;7.184;2022-12-04T16:35:15;45.67;;;26.10;;
46607;SDS011;32330;51.936;7.184;2022-12-04T16:37:42;46.55;;;28.80;;
46607;SDS011;32330;51.936;7.184;2022-12-04T16:40:09;44.67;;;26.48;;
46607;SDS011;32330;51.936;7.184;2022-12-04T16:42:37;47.17;;;27.52;;
46607;SDS011;32330;51.936;7.184;2022-12-04T16:45:06;48.80;;;26.45;;
46607;SDS011;32330;51.936;7.184;2022-12-04T16:47:47;48.40;;;27.20;;
46607;SDS011;32330;51.936;7.184;2022-12-04T16:50:14;50.60;;;27.70;;
46607;SDS011;32330;51.936;7.184;2022-12-04T16:52:41;44.35;;;25.73;;
46607;SDS011;32330;51.936;7.184;2022-12-04T16:55:12;49.30;;;27.13;;
46607;SDS011;32330;51.936;7.184;2022-12-04T17:01:44;44.40;;;26.48;;
46607;SDS011;32330;51.936;7.184;2022-12-04T17:04:14;48.50;;;27.13;;
46607;SDS011;32330;51.936;7.184;2022-12-04T17:06:41;45.10;;;26.83;;
46607;SDS011;32330;51.936;7.184;2022-12-04T17:09:08;45.83;;;26.23;;
46607;SDS011;32330;51.936;7.184;2022-12-04T17:11:36;47.97;;;27.13;;
46607;SDS011;32330;51.936;7.184;2022-12-04T17:14:03;46.65;;;26.95;;
46607;SDS011;32330;51.936;7.184;2022-12-04T17:16:32;46.58;;;26.88;;
46607;SDS011;32330;51.936;7.184;2022-12-04T17:18:59;47.10;;;27.02;;
46607;SDS011;32330;51.936;7.184;2022-12-04T17:21:27;46.42;;;26.90;;
46607;SDS011;32330;51.936;7.184;2022-12-04T17:23:54;51.30;;;27.95;;
46607;SDS011;32330;51.936;7.184;2022-12-04T17:26:21;50.20;;;30.00;;
46607;SDS011;32330;51.936;7.184;2022-12-04T17:28:48;46.20;;;27.92;;
46607;SDS011;32330;51.936;7.184;2022-12-04T17:31:17;47.15;;;26.90;;
46607;SDS011;32330;51.936;7.184;2022-12-04T17:33:45;48.33;;;26.75;;
46607;SDS011;32330;51.936;7.184;2022-12-04T17:36:14;50.58;;;26.90;;
46607;SDS011;32330;51.936;7.184;2022-12-04T17:38:44;49.20;;;28.13;;
46607;SDS011;32330;51.936;7.184;2022-12-04T17:44:10;43.90;;;26.73;;
46607;SDS011;32330;51.936;7.184;2022-12-04T17:46:37;45.85;;;26.65;;
46607;SDS011;32330;51.936;7.184;2022-12-04T17:49:19;45.85;;;26.98;;
46607;SDS011;32330;51.936;7.184;2022-12-04T17:51:46;44.17;;;26.70;;
46607;SDS011;32330;51.936;7.184;2022-12-04T17:54:14;46.60;;;27.25;;
46607;SDS011;32330;51.936;7.184;2022-12-04T17:56:41;52.22;;;29.55;;
46607;SDS011;32330;51.936;7.184;2022-12-04T17:59:08;46.67;;;26.00;;
46607;SDS011;32330;51.936;7.184;2022-12-04T18:01:35;42.42;;;24.83;;
46607;SDS011;32330;51.936;7.184;2022-12-04T18:04:03;46.17;;;25.58;;
46607;SDS011;32330;51.936;7.184;2022-12-04T18:06:34;33.13;;;17.85;;
46607;SDS011;32330;51.936;7.184;2022-12-04T18:09:02;42.30;;;24.00;;
46607;SDS011;32330;51.936;7.184;2022-12-04T18:11:32;45.85;;;25.90;;
46607;SDS011;32330;51.936;7.184;2022-12-04T18:14:00;40.55;;;25.25;;
46607;SDS011;32330;51.936;7.184;2022-12-04T18:16:29;38.38;;;23.35;;
46607;SDS011;32330;51.936;7.184;2022-12-04T18:18:58;41.45;;;25.00;;
46607;SDS011;32330;51.936;7.184;2022-12-04T18:21:26;40.38;;;24.67;;
46607;SDS011;32330;51.936;7.184;2022-12-04T18:23:54;41.13;;;26.38;;
46607;SDS011;32330;51.936;7.184;2022-12-04T18:26:23;40.40;;;23.25;;